Time;durP1;ratioP1;P1;durP2;ratioP2;P2;SDS_P1;SDS_P2;PMS_P1;PMS_P2;Temp;Humidity;BMP_temperature;BMP_pressure;BME280_temperature;BME280_humidity;BME280_pressure;Samples;Min_cycle;Max_cycle;Signal;HPM_P1;HPM_P2
2021/11/07 00:09:25;;;;;;;8.85;4.88;;;11.00;99.90;;;;;;4847765;29;20033;-81
2021/11/07 00:12:10;;;;;;;9.60;4.57;;;11.00;99.90;;;;;;4879502;29;20112;-82
2021/11/07 00:14:37;;;;;;;8.00;4.72;;;11.10;99.90;;;;;;4868958;29;20041;-86
2021/11/07 00:17:02;;;;;;;11.13;4.57;;;11.10;99.90;;;;;;4864447;29;20447;-86
2021/11/07 00:19:35;;;;;;;6.28;4.60;;;11.10;99.90;;;;;;4880020;29;20088;-85
2021/11/07 00:24:53;;;;;;;12.55;4.80;;;11.20;99.90;;;;;;4880541;29;20148;-84
2021/11/07 00:30:05;;;;;;;10.73;4.47;;;11.20;99.90;;;;;;4880781;29;20030;-84
2021/11/07 00:37:50;;;;;;;7.40;4.25;;;11.30;99.90;;;;;;4862031;29;20075;-84
2021/11/07 00:50:26;;;;;;;17.55;5.90;;;11.40;99.90;;;;;;4870330;29;20526;-84
2021/11/07 00:53:18;;;;;;;8.55;4.40;;;11.40;99.90;;;;;;4873120;29;20108;-83
2021/11/07 00:56:33;;;;;;;11.05;5.10;;;11.40;99.90;;;;;;4879204;29;20056;-86
2021/11/07 00:58:35;;;;;;;9.10;4.40;;;11.40;99.90;;;;;;4880531;29;20080;-86
2021/11/07 01:01:05;;;;;;;14.57;4.82;;;11.40;99.90;;;;;;4877502;29;20040;-85
2021/11/07 01:03:30;;;;;;;14.75;4.82;;;11.40;99.90;;;;;;4881693;29;20116;-87
2021/11/07 01:05:56;;;;;;;11.32;4.55;;;11.40;99.90;;;;;;4880866;29;20127;-87
2021/11/07 01:08:22;;;;;;;6.75;4.53;;;11.40;99.90;;;;;;4899361;29;20063;-87
2021/11/07 01:10:47;;;;;;;15.07;5.10;;;11.40;99.90;;;;;;4879534;29;20111;-85
2021/11/07 01:13:13;;;;;;;15.43;5.32;;;11.40;99.90;;;;;;4881022;29;20080;-86
2021/11/07 01:15:39;;;;;;;10.18;4.57;;;11.50;99.90;;;;;;4880888;29;20036;-86
2021/11/07 01:18:06;;;;;;;17.83;5.25;;;11.50;99.90;;;;;;4881947;29;20037;-85
2021/11/07 01:20:33;;;;;;;10.50;4.30;;;11.50;99.90;;;;;;4886089;29;20060;-86
2021/11/07 01:25:35;;;;;;;13.05;4.32;;;11.60;99.90;;;;;;4882260;29;20037;-86
2021/11/07 01:28:03;;;;;;;22.42;5.00;;;11.60;99.90;;;;;;4873752;29;20033;-87
2021/11/07 01:30:32;;;;;;;16.95;4.38;;;11.60;99.90;;;;;;4882098;29;20025;-86
2021/11/07 01:33:41;;;;;;;15.38;3.65;;;11.60;99.90;;;;;;4897940;29;20534;-85
2021/11/07 01:38:26;;;;;;;9.57;4.82;;;11.60;99.90;;;;;;4885355;29;20407;-87
2021/11/07 01:43:24;;;;;;;10.23;4.10;;;11.70;99.90;;;;;;4885281;29;20120;-87
2021/11/07 01:45:56;;;;;;;14.82;3.90;;;11.70;99.90;;;;;;4880982;29;20128;-86
2021/11/07 01:48:26;;;;;;;12.65;3.97;;;11.80;99.90;;;;;;4890033;29;20025;-83
2021/11/07 01:50:55;;;;;;;20.38;4.15;;;11.80;99.90;;;;;;4868825;29;20404;-86
2021/11/07 01:53:28;;;;;;;10.10;3.58;;;11.80;99.90;;;;;;4892543;29;20029;-86
2021/11/07 01:55:57;;;;;;;16.98;4.50;;;11.80;99.90;;;;;;4849047;29;20038;-84
2021/11/07 01:58:24;;;;;;;15.82;4.50;;;11.80;99.90;;;;;;4872906;29;20060;-87
2021/11/07 02:00:55;;;;;;;17.48;4.25;;;11.80;99.90;;;;;;4899973;29;20486;-84
2021/11/07 02:03:22;;;;;;;13.50;4.38;;;11.80;99.90;;;;;;4898725;29;20789;-86
2021/11/07 02:05:48;;;;;;;18.13;5.38;;;11.80;99.90;;;;;;4890073;29;20033;-85
2021/11/07 02:08:14;;;;;;;13.40;4.30;;;11.80;99.90;;;;;;4876923;29;20043;-85
2021/11/07 02:10:41;;;;;;;24.13;4.25;;;11.90;99.90;;;;;;4885190;29;20128;-87
2021/11/07 02:13:07;;;;;;;17.73;4.95;;;11.90;99.90;;;;;;4885922;29;20036;-85
2021/11/07 02:15:34;;;;;;;15.07;4.13;;;11.90;99.90;;;;;;4874469;29;20033;-87
2021/11/07 02:18:00;;;;;;;13.63;4.13;;;11.90;99.90;;;;;;4883841;29;20032;-85
2021/11/07 02:20:29;;;;;;;12.40;3.60;;;11.90;99.90;;;;;;4902316;29;20042;-84
2021/11/07 02:22:56;;;;;;;17.95;3.63;;;11.90;99.90;;;;;;4892251;29;20113;-86
2021/11/07 02:25:22;;;;;;;15.73;4.25;;;11.90;99.90;;;;;;4882194;29;20084;-86
2021/11/07 02:27:47;;;;;;;20.75;4.80;;;11.90;99.90;;;;;;4896855;29;20738;-88
2021/11/07 02:30:15;;;;;;;15.30;3.47;;;11.90;99.90;;;;;;4878914;29;20084;-86
2021/11/07 02:32:49;;;;;;;15.00;3.90;;;12.00;99.90;;;;;;4895867;29;20044;-86
2021/11/07 02:35:16;;;;;;;11.18;4.25;;;12.00;99.90;;;;;;4875339;29;20045;-84
2021/11/07 02:37:43;;;;;;;20.48;4.03;;;12.00;99.90;;;;;;4866765;29;20534;-87
2021/11/07 02:40:10;;;;;;;21.35;4.03;;;12.00;99.90;;;;;;4896645;29;20386;-86
2021/11/07 02:42:37;;;;;;;15.88;4.28;;;12.00;99.90;;;;;;4884782;29;20029;-81
2021/11/07 02:45:04;;;;;;;16.05;4.60;;;12.10;99.90;;;;;;4875228;29;20044;-85
2021/11/07 02:47:31;;;;;;;11.80;3.20;;;12.10;99.90;;;;;;4866705;29;20490;-85
2021/11/07 02:49:57;;;;;;;16.00;4.93;;;12.10;99.90;;;;;;4866597;29;20494;-85
2021/11/07 02:52:23;;;;;;;10.13;3.50;;;12.10;99.90;;;;;;4894240;29;20362;-85
2021/11/07 02:54:50;;;;;;;7.82;3.17;;;12.10;99.90;;;;;;4884867;29;20081;-82
2021/11/07 02:57:19;;;;;;;16.50;3.58;;;12.00;99.90;;;;;;4881302;29;20057;-84
2021/11/07 02:59:46;;;;;;;15.27;2.78;;;11.90;99.90;;;;;;4869441;29;20037;-85
2021/11/07 03:02:12;;;;;;;8.38;2.08;;;11.90;99.90;;;;;;4881755;29;20043;-85
2021/11/07 03:04:40;;;;;;;10.02;1.77;;;11.80;99.90;;;;;;4870645;29;20029;-85
2021/11/07 03:07:07;;;;;;;18.90;2.75;;;11.80;99.90;;;;;;4867020;29;20118;-84
2021/11/07 03:09:35;;;;;;;5.03;2.35;;;11.70;99.90;;;;;;4867430;29;20057;-86
2021/11/07 03:12:02;;;;;;;12.57;2.22;;;11.60;99.90;;;;;;4883834;29;20514;-85
2021/11/07 03:14:32;;;;;;;17.83;2.83;;;11.60;99.90;;;;;;4867924;29;20029;-86
2021/11/07 03:16:59;;;;;;;10.45;2.10;;;11.50;99.90;;;;;;4890669;29;20119;-84
2021/11/07 03:19:27;;;;;;;12.68;2.95;;;11.40;99.90;;;;;;4872328;29;20124;-83
2021/11/07 03:21:58;;;;;;;11.88;1.98;;;11.40;99.90;;;;;;4876014;29;20240;-85
2021/11/07 03:24:25;;;;;;;14.75;2.30;;;11.30;99.90;;;;;;4884056;29;20111;-83
2021/11/07 03:26:51;;;;;;;12.80;2.47;;;11.30;99.90;;;;;;4884642;29;20077;-85
2021/11/07 03:29:17;;;;;;;13.10;2.17;;;11.20;99.90;;;;;;4875526;29;20036;-84
2021/11/07 03:35:06;;;;;;;21.98;2.30;;;11.10;99.90;;;;;;4896334;29;20060;-84
2021/11/07 03:37:08;;;;;;;10.75;2.03;;;11.10;99.90;;;;;;4872695;29;20124;-84
2021/11/07 03:39:36;;;;;;;14.55;2.85;;;11.10;99.90;;;;;;4886760;29;20405;-84
2021/11/07 03:42:06;;;;;;;20.23;3.10;;;11.10;99.90;;;;;;4882229;29;20032;-83
2021/11/07 03:44:31;;;;;;;14.25;2.72;;;11.10;99.90;;;;;;4882826;29;20024;-83
2021/11/07 03:46:58;;;;;;;21.25;2.95;;;11.00;99.90;;;;;;4868995;29;20383;-84
2021/11/07 03:49:24;;;;;;;19.83;2.17;;;11.00;99.90;;;;;;4889707;29;20096;-85
2021/11/07 03:51:51;;;;;;;9.23;1.83;;;11.00;99.90;;;;;;4894995;29;20553;-82
2021/11/07 03:54:18;;;;;;;11.63;1.73;;;11.00;99.90;;;;;;4895424;29;20048;-82
2021/11/07 03:56:44;;;;;;;14.38;2.65;;;11.00;99.90;;;;;;4874432;29;20383;-84
2021/11/07 03:59:10;;;;;;;11.50;2.42;;;11.00;99.90;;;;;;4871395;29;20082;-83
2021/11/07 04:01:36;;;;;;;18.70;2.22;;;11.10;99.90;;;;;;4897988;29;20068;-83
2021/11/07 04:04:04;;;;;;;10.57;2.08;;;11.00;99.90;;;;;;4884082;29;20049;-84
2021/11/07 04:06:29;;;;;;;14.20;1.88;;;11.00;99.90;;;;;;4885272;29;20479;-84
2021/11/07 04:08:56;;;;;;;14.07;1.75;;;11.00;99.90;;;;;;4881641;29;20036;-82
2021/11/07 04:11:22;;;;;;;16.20;3.35;;;10.90;99.90;;;;;;4877161;29;20047;-84
2021/11/07 04:13:48;;;;;;;10.75;1.48;;;10.90;99.90;;;;;;4883938;29;20422;-84
2021/11/07 04:16:14;;;;;;;13.77;1.88;;;10.90;99.90;;;;;;4895399;29;20041;-84
2021/11/07 04:18:41;;;;;;;14.60;1.75;;;10.90;99.90;;;;;;4873807;29;20021;-81
2021/11/07 04:21:07;;;;;;;11.85;1.88;;;10.90;99.90;;;;;;4867935;29;20072;-85
2021/11/07 04:23:33;;;;;;;15.68;2.75;;;10.90;99.90;;;;;;4895836;29;20048;-86
2021/11/07 04:25:59;;;;;;;17.95;2.25;;;11.00;99.90;;;;;;4885471;29;20033;-83
2021/11/07 04:28:26;;;;;;;16.52;1.90;;;10.90;99.90;;;;;;4869298;29;20056;-82
2021/11/07 04:30:52;;;;;;;16.95;3.45;;;10.90;99.90;;;;;;4899010;29;20123;-84
2021/11/07 04:33:17;;;;;;;15.25;3.05;;;10.90;99.90;;;;;;4891819;29;20487;-83
2021/11/07 04:35:43;;;;;;;12.63;2.00;;;10.80;99.90;;;;;;4872537;29;20055;-83
2021/11/07 04:38:09;;;;;;;15.57;2.03;;;10.80;99.90;;;;;;4896631;29;20096;-83
2021/11/07 04:40:35;;;;;;;11.57;2.25;;;10.80;99.90;;;;;;4882704;29;20044;-83
2021/11/07 04:43:01;;;;;;;11.93;2.08;;;10.80;99.90;;;;;;4884012;29;20024;-82
2021/11/07 04:45:27;;;;;;;11.93;2.90;;;10.80;99.90;;;;;;4881127;29;20095;-84
2021/11/07 04:47:53;;;;;;;17.50;2.00;;;10.80;99.90;;;;;;4899930;29;20048;-81
2021/11/07 04:50:19;;;;;;;13.65;1.98;;;10.70;99.90;;;;;;4863455;29;20503;-84
2021/11/07 04:52:46;;;;;;;16.20;2.05;;;10.70;99.90;;;;;;4878090;29;20032;-82
2021/11/07 04:55:13;;;;;;;7.05;2.60;;;10.60;99.90;;;;;;4883952;29;20025;-83
2021/11/07 04:57:42;;;;;;;15.20;2.28;;;10.60;99.90;;;;;;4895104;29;20060;-83
2021/11/07 05:00:22;;;;;;;8.55;1.77;;;10.70;99.90;;;;;;4898909;29;20467;-82
2021/11/07 05:02:48;;;;;;;20.23;2.60;;;10.60;99.90;;;;;;4896534;29;20549;-82
2021/11/07 05:05:15;;;;;;;10.52;1.50;;;10.60;99.90;;;;;;4864493;29;20028;-82
2021/11/07 05:07:40;;;;;;;11.75;1.48;;;10.60;99.90;;;;;;4893636;29;20032;-81
2021/11/07 05:10:08;;;;;;;9.77;1.77;;;10.60;99.90;;;;;;4894329;29;20024;-83
2021/11/07 05:12:34;;;;;;;19.35;2.20;;;10.60;99.90;;;;;;4866352;29;20033;-83
2021/11/07 05:14:59;;;;;;;9.30;2.60;;;10.60;99.90;;;;;;4883348;29;20379;-82
2021/11/07 05:17:25;;;;;;;15.77;2.17;;;10.70;99.90;;;;;;4876628;29;20028;-83
2021/11/07 05:19:51;;;;;;;14.38;2.33;;;10.70;99.90;;;;;;4900360;29;20032;-83
2021/11/07 05:22:17;;;;;;;10.00;1.42;;;10.80;99.90;;;;;;4888509;29;20455;-81
2021/11/07 05:24:43;;;;;;;10.45;2.92;;;10.80;99.90;;;;;;4885900;29;20157;-80
2021/11/07 05:27:08;;;;;;;13.90;2.35;;;10.70;99.90;;;;;;4892464;29;20416;-80
2021/11/07 05:29:34;;;;;;;15.57;1.80;;;10.70;99.90;;;;;;4881158;29;20021;-82
2021/11/07 05:32:00;;;;;;;14.15;2.00;;;10.60;99.90;;;;;;4868620;29;20037;-81
2021/11/07 05:34:27;;;;;;;14.82;2.22;;;10.50;99.90;;;;;;4869210;29;20407;-82
2021/11/07 05:36:54;;;;;;;13.32;1.83;;;10.50;99.90;;;;;;4868832;29;20036;-80
2021/11/07 05:39:21;;;;;;;3.70;1.10;;;10.40;99.90;;;;;;4869598;29;20424;-85
2021/11/07 05:41:48;;;;;;;10.80;2.70;;;10.40;99.90;;;;;;4887102;29;20387;-84
2021/11/07 05:44:14;;;;;;;18.98;3.30;;;10.30;99.90;;;;;;4894797;29;20111;-83
2021/11/07 05:46:40;;;;;;;8.27;2.13;;;10.30;99.90;;;;;;4881337;29;20363;-83
2021/11/07 05:49:05;;;;;;;12.05;2.13;;;10.20;99.90;;;;;;4897175;29;20028;-84
2021/11/07 05:51:31;;;;;;;8.80;2.50;;;10.20;99.90;;;;;;4894860;29;20029;-84
2021/11/07 05:53:57;;;;;;;14.05;1.88;;;10.20;99.90;;;;;;4876750;29;20022;-84
2021/11/07 05:56:23;;;;;;;34.85;3.08;;;10.20;99.90;;;;;;4883927;29;20084;-84
2021/11/07 05:58:49;;;;;;;9.00;1.42;;;10.20;99.90;;;;;;4867624;29;20033;-85
2021/11/07 06:01:15;;;;;;;17.35;2.50;;;10.20;99.90;;;;;;4864076;29;20029;-87
2021/11/07 06:03:40;;;;;;;21.25;2.45;;;10.20;99.90;;;;;;4863130;29;20033;-85
2021/11/07 06:06:06;;;;;;;15.63;2.25;;;10.20;99.90;;;;;;4863084;29;20048;-85
2021/11/07 06:08:32;;;;;;;18.02;3.17;;;10.20;99.90;;;;;;4874164;29;20044;-84
2021/11/07 06:10:58;;;;;;;8.88;2.03;;;10.20;99.90;;;;;;4871699;29;20490;-83
2021/11/07 06:13:25;;;;;;;11.77;1.85;;;10.10;99.90;;;;;;4871331;29;20037;-83
2021/11/07 06:15:51;;;;;;;21.38;2.60;;;10.10;99.90;;;;;;4896685;29;20044;-82
2021/11/07 06:18:16;;;;;;;7.88;2.03;;;10.10;99.90;;;;;;4891332;29;20547;-85
2021/11/07 06:20:42;;;;;;;19.33;2.45;;;10.10;99.90;;;;;;4882708;29;20029;-84
2021/11/07 06:23:10;;;;;;;13.95;2.25;;;10.10;99.90;;;;;;4867796;29;20021;-85
2021/11/07 06:25:36;;;;;;;11.40;1.95;;;10.10;99.90;;;;;;4885522;29;20490;-84
2021/11/07 06:28:02;;;;;;;16.58;2.28;;;10.10;99.90;;;;;;4893706;29;20089;-87
2021/11/07 06:30:29;;;;;;;15.40;2.85;;;10.10;99.90;;;;;;4888300;29;20048;-87
2021/11/07 06:32:55;;;;;;;14.45;2.00;;;10.10;99.90;;;;;;4875533;29;20510;-86
2021/11/07 06:35:21;;;;;;;8.00;1.70;;;10.10;99.90;;;;;;4874181;29;20048;-87
2021/11/07 06:37:47;;;;;;;12.48;2.70;;;10.10;99.90;;;;;;4920166;29;20016;-86
2021/11/07 06:40:13;;;;;;;13.13;2.22;;;10.20;99.90;;;;;;4890393;29;20032;-80
2021/11/07 06:42:39;;;;;;;15.82;2.10;;;10.10;99.90;;;;;;4912680;29;20075;-79
2021/11/07 06:45:05;;;;;;;22.75;2.40;;;10.10;99.90;;;;;;4907004;29;20029;-85
2021/11/07 06:47:31;;;;;;;10.45;1.83;;;10.10;99.90;;;;;;4890671;29;20109;-83
2021/11/07 06:49:58;;;;;;;18.08;2.63;;;10.10;99.90;;;;;;4898266;29;20011;-85
2021/11/07 06:52:25;;;;;;;9.60;3.45;;;10.00;99.90;;;;;;4909395;29;20052;-82
2021/11/07 06:54:50;;;;;;;23.00;2.25;;;10.10;99.90;;;;;;4906679;29;20015;-81
2021/11/07 06:57:16;;;;;;;17.92;3.08;;;10.00;99.90;;;;;;4894572;29;20017;-80
2021/11/07 06:59:42;;;;;;;10.50;1.65;;;10.00;99.90;;;;;;4922174;29;20028;-82
2021/11/07 07:02:08;;;;;;;18.73;1.80;;;10.00;99.90;;;;;;4905044;29;20021;-80
2021/11/07 07:04:34;;;;;;;9.45;2.97;;;10.00;99.90;;;;;;4914052;29;20016;-82
2021/11/07 07:07:00;;;;;;;10.05;2.17;;;10.00;99.90;;;;;;4923311;29;20040;-79
2021/11/07 07:09:29;;;;;;;5.75;1.60;;;10.00;99.90;;;;;;4909028;29;20029;-83
2021/11/07 07:12:06;;;;;;;10.02;1.45;;;10.00;99.90;;;;;;4916940;29;20029;-83
2021/11/07 07:14:38;;;;;;;12.87;1.70;;;10.10;99.90;;;;;;4908463;29;20017;-79
2021/11/07 07:20:08;;;;;;;16.52;2.75;;;10.10;99.90;;;;;;4905706;29;20036;-82
2021/11/07 07:35:27;;;;;;;23.67;4.38;;;10.70;99.90;;;;;;4889884;29;20045;-83
2021/11/07 07:37:55;;;;;;;16.17;2.17;;;10.80;99.90;;;;;;4904930;29;20076;-83
2021/11/07 07:40:21;;;;;;;13.55;2.22;;;10.90;99.90;;;;;;4878491;29;20074;-85
2021/11/07 07:42:47;;;;;;;17.20;2.60;;;10.90;99.90;;;;;;4884185;29;20036;-85
2021/11/07 07:45:14;;;;;;;6.90;1.67;;;10.90;99.90;;;;;;4866434;29;20501;-84
2021/11/07 07:47:42;;;;;;;19.33;2.92;;;10.90;99.90;;;;;;4882963;29;20025;-84
2021/11/07 07:50:10;;;;;;;8.70;1.55;;;10.80;99.90;;;;;;4884808;29;20439;-83
2021/11/07 07:52:35;;;;;;;14.77;2.05;;;10.90;99.90;;;;;;4901896;29;20071;-85
2021/11/07 07:55:01;;;;;;;20.23;2.95;;;10.90;99.90;;;;;;4870035;29;20403;-84
2021/11/07 07:57:27;;;;;;;21.70;1.75;;;11.00;99.90;;;;;;4874575;29;20036;-84
2021/11/07 07:59:54;;;;;;;11.40;1.88;;;11.00;99.90;;;;;;4884970;29;20096;-85
2021/11/07 08:02:19;;;;;;;10.52;2.60;;;11.10;99.90;;;;;;4871996;29;20068;-85
2021/11/07 08:04:45;;;;;;;15.00;1.98;;;11.20;99.90;;;;;;4878897;29;20032;-86
2021/11/07 08:07:11;;;;;;;16.67;2.70;;;11.30;99.90;;;;;;4904238;29;20040;-86
2021/11/07 08:09:36;;;;;;;10.55;1.52;;;11.40;99.90;;;;;;4885696;29;20160;-84
2021/11/07 08:12:02;;;;;;;14.30;1.92;;;11.50;99.90;;;;;;4889028;29;20037;-85
2021/11/07 08:14:30;;;;;;;19.92;2.05;;;11.50;99.90;;;;;;4887652;29;20031;-86
2021/11/07 08:16:57;;;;;;;8.70;1.37;;;11.40;99.90;;;;;;4885878;29;20029;-84
2021/11/07 08:19:23;;;;;;;14.05;3.20;;;11.30;99.90;;;;;;4897527;29;20029;-86
2021/11/07 08:21:49;;;;;;;14.60;2.58;;;11.20;99.90;;;;;;4873032;29;20025;-85
2021/11/07 08:24:17;;;;;;;16.80;1.83;;;11.10;99.90;;;;;;4879475;29;20036;-87
2021/11/07 08:26:43;;;;;;;;;;;11.10;99.90;;;;;;4879800;29;20035;-86
2021/11/07 08:29:12;;;;;;;8.05;1.48;;;11.20;99.90;;;;;;4886100;29;19915;-87
2021/11/07 08:31:39;;;;;;;7.13;1.38;;;11.20;99.90;;;;;;4874690;29;20050;-86
2021/11/07 08:34:07;;;;;;;12.18;3.05;;;11.20;99.90;;;;;;4901381;29;20036;-86
2021/11/07 08:37:09;;;;;;;;;;;11.30;99.90;;;;;;4888045;29;20398;-85
2021/11/07 08:39:31;;;;;;;14.93;1.85;;;11.30;99.90;;;;;;4895727;29;19911;-82
2021/11/07 08:42:04;;;;;;;18.40;2.95;;;11.40;99.90;;;;;;4881578;29;20104;-86
2021/11/07 09:01:16;;;;;;;13.98;3.47;;;11.70;99.90;;;;;;4882201;29;20391;-83
2021/11/07 09:04:26;;;;;;;14.00;2.28;;;11.80;99.90;;;;;;4864448;29;20486;-84
2021/11/07 09:06:47;;;;;;;7.43;1.92;;;11.90;99.90;;;;;;4873355;29;20041;-85
2021/11/07 09:09:14;;;;;;;17.30;3.22;;;11.90;99.90;;;;;;4864842;29;20037;-83
2021/11/07 09:11:49;;;;;;;12.13;1.92;;;12.00;99.90;;;;;;4860933;29;20041;-85
2021/11/07 09:14:17;;;;;;;12.63;2.17;;;12.20;99.90;;;;;;4872593;29;20107;-86
2021/11/07 09:16:42;;;;;;;10.05;1.90;;;12.30;99.90;;;;;;4869441;29;20478;-81
2021/11/07 09:19:10;;;;;;;11.55;1.65;;;12.30;99.90;;;;;;4883827;29;20032;-81
2021/11/07 09:21:37;;;;;;;7.90;1.52;;;12.20;99.90;;;;;;4894569;29;20466;-79
2021/11/07 09:24:09;;;;;;;14.00;1.90;;;12.10;99.90;;;;;;4862747;29;20037;-78
2021/11/07 09:26:41;;;;;;;11.52;1.65;;;12.20;99.90;;;;;;4869175;29;20037;-82
2021/11/07 09:29:14;;;;;;;14.25;2.70;;;12.30;99.90;;;;;;4882532;29;20037;-81
2021/11/07 09:32:27;;;;;;;21.83;2.83;;;12.20;99.90;;;;;;4876060;29;20465;-80
2021/11/07 09:35:10;;;;;;;13.23;1.85;;;12.00;99.90;;;;;;4870460;29;20179;-81
2021/11/07 09:40:06;;;;;;;10.55;2.30;;;11.90;99.90;;;;;;4884439;29;20033;-80
2021/11/07 09:45:43;;;;;;;19.83;2.63;;;12.00;99.90;;;;;;4898694;29;20040;-80
2021/11/07 09:51:16;;;;;;;16.50;1.85;;;12.00;99.90;;;;;;4804937;29;20039;-78
2021/11/07 09:53:44;;;;;;;11.77;2.28;;;12.00;99.90;;;;;;4808154;29;20069;-81
2021/11/07 09:56:26;;;;;;;12.48;2.03;;;12.00;99.90;;;;;;4825799;29;20046;-79
2021/11/07 09:58:54;;;;;;;9.35;1.80;;;12.00;99.90;;;;;;4821891;29;20157;-80
2021/11/07 10:01:23;;;;;;;;;;;12.00;99.90;;;;;;4866563;29;20079;-80
2021/11/07 10:03:50;;;;;;;15.50;2.25;;;11.90;99.90;;;;;;4887313;29;19921;-82
2021/11/07 10:07:10;;;;;;;16.70;1.83;;;12.00;99.90;;;;;;4881210;29;20032;-83
2021/11/07 10:09:34;;;;;;;10.25;2.05;;;12.20;99.90;;;;;;4882791;29;20033;-82
2021/11/07 10:12:13;;;;;;;11.30;2.70;;;12.30;99.90;;;;;;4868398;29;20053;-82
2021/11/07 10:14:52;;;;;;;14.35;3.15;;;12.40;99.90;;;;;;4902794;29;20445;-82
2021/11/07 10:20:42;;;;;;;9.25;1.70;;;12.40;99.90;;;;;;4860870;29;20047;-83
2021/11/07 10:23:21;;;;;;;14.73;2.08;;;12.40;99.90;;;;;;4884973;29;20052;-80
2021/11/07 10:26:00;;;;;;;14.52;2.88;;;12.60;99.90;;;;;;4881525;29;20025;-81
2021/11/07 10:28:33;;;;;;;10.13;2.45;;;12.60;99.90;;;;;;4866870;29;20056;-82
2021/11/07 10:31:05;;;;;;;15.23;2.22;;;12.50;99.90;;;;;;4866180;29;20032;-81
2021/11/07 10:37:00;;;;;;;7.95;1.73;;;12.40;99.90;;;;;;4879289;29;20394;-80
2021/11/07 10:53:51;;;;;;;23.10;2.95;;;13.10;99.90;;;;;;4890030;29;20060;-79
2021/11/07 10:56:17;;;;;;;22.88;3.15;;;13.10;99.90;;;;;;4873895;29;20047;-81
2021/11/07 10:58:48;;;;;;;15.57;2.08;;;13.10;99.90;;;;;;4870053;29;20041;-80
2021/11/07 11:01:23;;;;;;;11.23;1.85;;;13.00;99.90;;;;;;4875350;29;20033;-81
2021/11/07 11:03:58;;;;;;;22.10;3.00;;;12.90;99.90;;;;;;4873839;29;20503;-79
2021/11/07 11:06:24;;;;;;;9.50;1.63;;;12.90;99.90;;;;;;4862805;29;20037;-78
2021/11/07 11:08:55;;;;;;;20.00;1.83;;;12.90;99.90;;;;;;4863489;29;20387;-80
2021/11/07 11:11:30;;;;;;;20.98;2.47;;;12.50;99.90;;;;;;4879622;29;20033;-81
2021/11/07 11:16:53;;;;;;;11.02;1.55;;;11.20;99.90;;;;;;4881135;29;20045;-79
2021/11/07 11:24:54;;;;;;;20.40;2.25;;;9.70;99.90;;;;;;4882518;29;20045;-82
2021/11/07 11:30:31;;;;;;;17.20;2.15;;;9.50;99.90;;;;;;4882618;29;20033;-87
2021/11/07 11:33:02;;;;;;;18.45;2.28;;;9.50;99.90;;;;;;4882322;29;20056;-87
2021/11/07 11:35:34;;;;;;;16.95;3.22;;;9.60;99.90;;;;;;4875575;29;20594;-86
2021/11/07 11:40:47;;;;;;;21.30;2.63;;;9.90;99.90;;;;;;4886424;29;20036;-87
2021/11/07 11:43:18;;;;;;;24.20;3.00;;;10.00;99.90;;;;;;4868335;29;20116;-85
2021/11/07 11:45:47;;;;;;;17.85;2.33;;;10.00;99.90;;;;;;4866768;29;20065;-86
2021/11/07 11:51:16;;;;;;;16.05;2.13;;;10.10;99.90;;;;;;4893364;29;20036;-86
2021/11/07 12:00:41;;;;;;;19.85;2.47;;;10.20;99.90;;;;;;4852008;29;20052;-86
2021/11/07 12:03:25;;;;;;;21.35;2.97;;;10.30;99.90;;;;;;4881216;29;20111;-85
2021/11/07 12:09:19;;;;;;;27.33;2.80;;;10.40;99.90;;;;;;4882290;29;20066;-87
2021/11/07 12:11:41;;;;;;;18.90;2.72;;;10.50;99.90;;;;;;4862526;29;20574;-84
2021/11/07 12:16:58;;;;;;;10.33;2.33;;;10.60;99.90;;;;;;4865378;29;20152;-85
2021/11/07 12:19:43;;;;;;;14.40;2.35;;;10.60;99.90;;;;;;4863264;29;20415;-88
2021/11/07 12:22:10;;;;;;;11.07;2.15;;;10.50;99.90;;;;;;4864825;29;20066;-88
2021/11/07 12:24:47;;;;;;;17.85;2.47;;;10.50;99.90;;;;;;4865306;29;20030;-88
2021/11/07 12:27:46;;;;;;;16.60;2.50;;;10.50;99.90;;;;;;4877393;29;20132;-88
2021/11/07 12:30:15;;;;;;;19.55;3.40;;;10.50;99.90;;;;;;4848090;29;20026;-86
2021/11/07 12:32:44;;;;;;;26.00;2.85;;;10.70;99.90;;;;;;4853651;29;20075;-86
2021/11/07 12:35:22;;;;;;;21.15;2.97;;;10.90;99.90;;;;;;4879159;29;20056;-87
2021/11/07 12:40:50;;;;;;;39.15;3.53;;;11.10;99.90;;;;;;4882648;29;20546;-86
2021/11/07 12:43:43;;;;;;;14.65;2.30;;;11.30;99.90;;;;;;4857594;29;20057;-81
2021/11/07 12:47:07;;;;;;;22.30;3.20;;;11.30;99.90;;;;;;4863179;29;20053;-86
2021/11/07 12:49:13;;;;;;;18.75;3.33;;;11.30;99.90;;;;;;4868397;29;20044;-88
2021/11/07 12:51:51;;;;;;;21.85;3.70;;;11.20;99.90;;;;;;4883618;29;20033;-86
2021/11/07 12:54:24;;;;;;;22.70;2.63;;;11.10;99.90;;;;;;4866539;29;20045;-87
2021/11/07 12:56:52;;;;;;;23.88;2.53;;;11.00;99.90;;;;;;4865733;29;20033;-89
2021/11/07 12:59:23;;;;;;;13.85;2.97;;;11.00;99.90;;;;;;4883290;29;20092;-87
2021/11/07 13:02:06;;;;;;;25.35;4.18;;;10.90;99.90;;;;;;4882045;29;20031;-87
2021/11/07 13:05:06;;;;;;;17.80;4.53;;;10.90;99.90;;;;;;4859123;29;20456;-85
2021/11/07 13:07:54;;;;;;;17.63;3.08;;;10.90;99.90;;;;;;4866740;29;20069;-87
2021/11/07 13:16:08;;;;;;;19.75;3.80;;;11.20;99.90;;;;;;4885994;29;20132;-87
2021/11/07 13:24:06;;;;;;;23.25;2.58;;;11.80;99.90;;;;;;4876361;29;20120;-82
2021/11/07 13:26:42;;;;;;;24.05;4.60;;;12.10;99.90;;;;;;4885440;29;20021;-79
2021/11/07 13:34:31;;;;;;;;;;;12.30;99.90;;;;;;4879125;29;20052;-83
2021/11/07 13:36:59;;;;;;;21.20;2.47;;;12.10;99.90;;;;;;4879514;29;19916;-81
2021/11/07 13:39:34;;;;;;;23.52;2.72;;;12.10;99.90;;;;;;4874300;29;20038;-80
2021/11/07 13:42:13;;;;;;;23.83;3.35;;;12.10;99.90;;;;;;4859359;29;20124;-82
2021/11/07 13:44:43;;;;;;;24.27;4.10;;;12.30;99.90;;;;;;4855925;29;20055;-78
2021/11/07 13:47:09;;;;;;;15.88;4.70;;;12.20;99.90;;;;;;4879029;29;20112;-80
2021/11/07 13:49:49;;;;;;;18.38;3.42;;;12.20;99.90;;;;;;4864283;29;20029;-80
2021/11/07 13:52:14;;;;;;;24.85;3.35;;;12.00;99.90;;;;;;4878039;29;20500;-84
2021/11/07 13:54:41;;;;;;;18.52;2.65;;;11.80;99.90;;;;;;4871760;29;20025;-81
2021/11/07 13:57:08;;;;;;;17.42;2.35;;;11.80;99.90;;;;;;4879723;29;20029;-81
2021/11/07 13:59:44;;;;;;;23.05;2.90;;;11.90;99.90;;;;;;4889152;29;20036;-81
2021/11/07 14:02:15;;;;;;;16.58;1.80;;;12.00;99.90;;;;;;4871945;29;20229;-82
2021/11/07 14:04:44;;;;;;;18.88;2.40;;;12.00;99.90;;;;;;4865738;29;20399;-81
2021/11/07 14:07:22;;;;;;;17.40;2.72;;;12.20;99.90;;;;;;4876349;29;20061;-82
2021/11/07 14:10:08;;;;;;;20.20;2.28;;;12.20;99.90;;;;;;4862350;29;20043;-83
2021/11/07 14:12:45;;;;;;;15.30;2.35;;;12.20;99.90;;;;;;4862810;29;20029;-82
2021/11/07 14:15:15;;;;;;;;;;;11.90;99.90;;;;;;4880325;29;20038;-83
2021/11/07 14:17:43;;;;;;;6.30;1.55;;;11.70;99.90;;;;;;4874630;29;19912;-83
2021/11/07 14:20:10;;;;;;;15.32;2.45;;;11.40;99.90;;;;;;4878415;29;20029;-80
2021/11/07 14:22:37;;;;;;;11.45;1.83;;;11.30;99.90;;;;;;4878521;29;20029;-81
2021/11/07 14:25:10;;;;;;;8.40;1.50;;;11.20;99.90;;;;;;4867378;29;20072;-81
2021/11/07 14:28:02;;;;;;;19.48;2.13;;;11.00;99.90;;;;;;4883977;29;20024;-82
2021/11/07 14:30:33;;;;;;;10.70;1.83;;;10.90;99.90;;;;;;4878507;29;20120;-84
2021/11/07 14:33:08;;;;;;;8.93;1.70;;;10.80;99.90;;;;;;4879656;29;20431;-84
2021/11/07 14:35:34;;;;;;;5.38;1.42;;;10.70;99.90;;;;;;4874321;29;20045;-83
2021/11/07 14:38:06;;;;;;;16.05;2.38;;;10.60;99.90;;;;;;4879024;29;20033;-82
2021/11/07 14:40:48;;;;;;;12.45;2.38;;;10.50;99.90;;;;;;4866573;29;20034;-83
2021/11/07 14:54:23;;;;;;;13.18;2.10;;;10.30;99.90;;;;;;4887052;29;20064;-76
2021/11/07 14:59:42;;;;;;;16.40;2.30;;;9.70;99.90;;;;;;4881681;29;20048;-80
2021/11/07 15:05:06;;;;;;;8.85;1.92;;;9.30;99.90;;;;;;4875765;29;20059;-78
2021/11/07 15:10:11;;;;;;;20.92;2.90;;;9.10;99.90;;;;;;4901866;29;20033;-78
2021/11/07 15:15:23;;;;;;;19.10;3.95;;;9.00;99.90;;;;;;4920041;29;20044;-79
2021/11/07 15:18:02;;;;;;;23.70;2.75;;;9.10;99.90;;;;;;4889475;29;20040;-79
2021/11/07 15:22:55;;;;;;;8.98;2.17;;;9.10;99.90;;;;;;4890977;29;20054;-79
2021/11/07 15:25:31;;;;;;;19.42;4.70;;;9.20;99.90;;;;;;4875020;29;20021;-79
2021/11/07 15:28:00;;;;;;;21.25;2.80;;;9.30;99.90;;;;;;4904861;29;20029;-79
2021/11/07 15:30:26;;;;;;;20.25;3.22;;;9.40;99.90;;;;;;4905363;29;20060;-78
2021/11/07 15:32:51;;;;;;;20.90;3.10;;;9.50;99.90;;;;;;4880605;29;20030;-79
2021/11/07 15:35:29;;;;;;;25.02;3.80;;;9.50;99.90;;;;;;4879065;29;20025;-79
2021/11/07 15:37:55;;;;;;;;;;;9.50;99.90;;;;;;4904456;29;20036;-79
2021/11/07 15:40:29;;;;;;;22.90;3.20;;;9.50;99.90;;;;;;4905835;29;19900;-79
2021/11/07 15:42:54;;;;;;;11.73;2.50;;;9.60;99.90;;;;;;4905444;29;20089;-79
2021/11/07 15:45:23;;;;;;;19.95;2.20;;;9.60;99.90;;;;;;4905043;29;20021;-79
2021/11/07 15:47:54;;;;;;;24.52;2.92;;;9.70;99.90;;;;;;4905004;29;20077;-78
2021/11/07 15:57:09;;;;;;;16.02;2.67;;;9.70;99.90;;;;;;4877906;29;20029;-79